createdAt,value
2024-01-20T00:01:12.037Z,100.00
2024-01-20T00:06:16.446Z,100.00
2024-01-20T00:11:19.870Z,100.00
2024-01-20T00:16:23.390Z,100.00
2024-01-20T00:21:28.179Z,100.00
2024-01-20T00:26:31.186Z,100.00
2024-01-20T00:31:35.474Z,100.00
2024-01-20T00:36:39.860Z,100.00
2024-01-20T00:41:42.946Z,100.00
2024-01-20T00:46:46.647Z,100.00
2024-01-20T00:51:50.920Z,100.00
2024-01-20T00:56:54.009Z,100.00
2024-01-20T01:01:57.003Z,100.00
2024-01-20T01:07:01.310Z,100.00
2024-01-20T01:12:04.672Z,100.00
2024-01-20T01:17:07.845Z,100.00
2024-01-20T01:22:12.182Z,100.00
2024-01-20T01:27:15.120Z,100.00
2024-01-20T01:32:18.260Z,100.00
2024-01-20T01:37:22.715Z,100.00
2024-01-20T01:42:25.649Z,100.00
2024-01-20T01:47:28.877Z,100.00
2024-01-20T01:52:34.424Z,100.00
2024-01-20T01:57:37.601Z,100.00
2024-01-20T02:02:40.522Z,100.00
2024-01-20T02:07:49.457Z,100.00
2024-01-20T02:12:52.878Z,100.00
2024-01-20T02:17:57.225Z,100.00
2024-01-20T02:23:01.585Z,100.00
2024-01-20T02:28:05.170Z,100.00
2024-01-20T02:33:08.192Z,100.00
2024-01-20T02:38:12.557Z,99.76
2024-01-20T02:43:16.633Z,100.00
2024-01-20T02:48:19.907Z,99.06
2024-01-20T02:53:25.450Z,100.00
2024-01-20T02:58:28.570Z,98.71
2024-01-20T03:03:31.651Z,97.95
2024-01-20T03:08:36.012Z,99.50
2024-01-20T03:13:38.970Z,98.53
2024-01-20T03:18:42.248Z,97.11
2024-01-20T03:23:46.624Z,98.98
2024-01-20T03:28:49.742Z,95.25
2024-01-20T03:33:54.020Z,98.85
2024-01-20T03:38:58.497Z,95.37
2024-01-20T03:44:01.513Z,97.79
2024-01-20T03:49:04.911Z,97.41
2024-01-20T03:54:10.308Z,98.35
2024-01-20T03:59:13.457Z,97.36
2024-01-20T04:04:16.403Z,95.86
2024-01-20T04:09:21.660Z,97.46
2024-01-20T04:14:24.629Z,100.00
2024-01-20T04:19:27.639Z,96.99
2024-01-20T04:24:32.081Z,96.15
2024-01-20T04:29:34.997Z,98.58
2024-01-20T04:34:38.307Z,96.09
2024-01-20T04:39:42.874Z,97.89
2024-01-20T04:44:46.189Z,99.30
2024-01-20T04:49:49.839Z,100.00
2024-01-20T04:54:54.619Z,99.67
2024-01-20T04:59:57.638Z,99.75
2024-01-20T05:05:00.553Z,99.13
2024-01-20T05:10:05.155Z,99.46
2024-01-20T05:15:12.847Z,100.00
2024-01-20T05:20:16.576Z,100.00
2024-01-20T05:25:20.938Z,98.85
2024-01-20T05:30:24.916Z,100.00
2024-01-20T05:35:27.885Z,99.64
2024-01-20T05:40:32.192Z,100.00
2024-01-20T05:45:35.244Z,100.00
2024-01-20T05:50:38.309Z,99.05
2024-01-20T05:55:42.671Z,100.00
2024-01-20T06:00:45.903Z,99.42
2024-01-20T06:05:49.386Z,97.46
2024-01-20T06:10:54.041Z,98.01
2024-01-20T06:15:57.331Z,100.00
2024-01-20T06:21:01.120Z,100.00
2024-01-20T06:26:05.719Z,100.00
2024-01-20T06:31:08.629Z,100.00
2024-01-20T06:36:11.596Z,100.00
2024-01-20T06:41:15.865Z,100.00
2024-01-20T06:46:18.835Z,100.00
2024-01-20T06:51:26.919Z,100.00
2024-01-20T06:56:31.288Z,100.00
2024-01-20T07:01:34.335Z,100.00
2024-01-20T07:06:37.285Z,100.00
2024-01-20T07:11:41.728Z,100.00
2024-01-20T07:16:44.614Z,100.00
2024-01-20T07:21:47.532Z,100.00
2024-01-20T07:26:51.855Z,98.81
2024-01-20T07:31:54.767Z,100.00
2024-01-20T07:36:57.703Z,100.00
2024-01-20T07:42:02.021Z,100.00
2024-01-20T07:47:05.388Z,100.00
2024-01-20T07:52:08.969Z,100.00
2024-01-20T07:57:13.317Z,100.00
2024-01-20T08:02:16.455Z,100.00
2024-01-20T08:07:19.406Z,98.87
2024-01-20T08:12:23.848Z,99.55
2024-01-20T08:17:27.023Z,97.65
2024-01-20T08:22:30.035Z,97.58
2024-01-20T08:27:34.402Z,99.06
2024-01-20T08:32:38.664Z,97.31
2024-01-20T08:37:41.748Z,97.21
2024-01-20T08:42:46.103Z,99.42
2024-01-20T08:47:49.180Z,97.13
2024-01-20T08:52:52.264Z,93.80
2024-01-20T08:57:58.039Z,95.31
2024-01-20T09:03:01.085Z,96.80
2024-01-20T09:08:06.178Z,96.15
2024-01-20T09:13:11.075Z,93.98
2024-01-20T09:18:17.387Z,94.00
2024-01-20T09:23:20.613Z,95.44
2024-01-20T09:28:26.303Z,95.29
2024-01-20T09:33:29.917Z,92.86
2024-01-20T09:38:32.994Z,93.68
2024-01-20T09:43:39.402Z,90.96
2024-01-20T09:48:44.555Z,90.22
2024-01-20T09:53:49.372Z,86.04
2024-01-20T09:58:54.705Z,87.46
2024-01-20T10:04:02.749Z,81.46
2024-01-20T10:09:05.871Z,79.30
2024-01-20T10:14:10.216Z,77.05
2024-01-20T10:19:13.289Z,77.19
2024-01-20T10:24:22.305Z,76.58
2024-01-20T10:29:26.975Z,72.39
2024-01-20T10:34:30.754Z,78.26
2024-01-20T10:39:38.365Z,78.44
2024-01-20T10:44:44.387Z,76.57
2024-01-20T10:49:51.108Z,74.88
2024-01-20T10:54:54.202Z,74.36
2024-01-20T11:00:00.863Z,75.65
2024-01-20T11:05:04.565Z,73.80
2024-01-20T11:10:09.946Z,72.54
2024-01-20T11:15:19.280Z,67.07
2024-01-20T11:20:22.366Z,67.26
2024-01-20T11:25:25.826Z,63.01
2024-01-20T11:30:32.002Z,60.19
2024-01-20T11:35:38.520Z,58.59
2024-01-20T11:40:41.628Z,62.07
2024-01-20T11:45:46.181Z,62.55
2024-01-20T11:50:49.450Z,58.63
2024-01-20T11:55:57.068Z,58.96
2024-01-20T12:01:02.711Z,57.46
2024-01-20T12:06:09.730Z,65.13
2024-01-20T12:11:21.055Z,64.75
2024-01-20T12:16:26.250Z,66.02
2024-01-20T12:21:30.073Z,66.09
2024-01-20T12:26:33.932Z,65.21
2024-01-20T12:31:38.471Z,67.32
2024-01-20T12:36:41.387Z,66.83
2024-01-20T12:41:44.438Z,66.33
2024-01-20T12:46:49.140Z,71.51
2024-01-20T12:51:52.241Z,68.00
2024-01-20T12:56:55.294Z,71.14
2024-01-20T13:01:59.542Z,72.53
2024-01-20T13:07:02.445Z,71.67
2024-01-20T13:12:06.269Z,72.20
2024-01-20T13:17:10.846Z,70.39
2024-01-20T13:22:13.802Z,68.75
2024-01-20T13:27:16.791Z,66.14
2024-01-20T13:32:21.325Z,64.65
2024-01-20T13:37:25.329Z,63.51
2024-01-20T13:42:28.474Z,61.77
2024-01-20T13:47:32.910Z,61.80
2024-01-20T13:52:35.935Z,60.74
2024-01-20T13:57:38.959Z,60.33
2024-01-20T14:02:44.708Z,63.28
2024-01-20T14:07:47.691Z,63.17
2024-01-20T14:12:50.621Z,62.99
2024-01-20T14:17:54.950Z,64.75
2024-01-20T14:22:58.008Z,66.58
2024-01-20T14:28:02.124Z,66.43
2024-01-20T14:33:06.987Z,63.74
2024-01-20T14:38:10.064Z,64.63
2024-01-20T14:43:13.022Z,62.58
2024-01-20T14:48:17.371Z,62.74
2024-01-20T14:53:20.991Z,63.84
2024-01-20T14:58:23.916Z,63.58
2024-01-20T15:03:28.257Z,66.13
2024-01-20T15:08:31.211Z,67.11
2024-01-20T15:13:34.235Z,65.53
2024-01-20T15:18:38.673Z,65.37
2024-01-20T15:23:41.793Z,66.70
2024-01-20T15:28:45.401Z,68.40
2024-01-20T15:33:49.841Z,69.49
2024-01-20T15:38:52.849Z,70.85
2024-01-20T15:43:55.873Z,71.81
2024-01-20T15:49:00.352Z,71.40
2024-01-20T15:54:03.348Z,73.30
2024-01-20T15:59:06.273Z,72.28
2024-01-20T16:04:10.776Z,72.20
2024-01-20T16:09:15.628Z,71.83
2024-01-20T16:14:23.480Z,71.33
2024-01-20T16:19:28.843Z,71.61
2024-01-20T16:24:31.898Z,72.28
2024-01-20T16:29:35.151Z,71.24
2024-01-20T16:34:39.783Z,71.06
2024-01-20T16:39:42.973Z,69.19
2024-01-20T16:44:46.181Z,67.27
2024-01-20T16:49:50.700Z,65.59
2024-01-20T16:54:53.765Z,63.18
2024-01-20T16:59:56.652Z,61.96
2024-01-20T17:05:01.083Z,60.90
2024-01-20T17:10:04.477Z,59.08
2024-01-20T17:15:09.619Z,58.58
2024-01-20T17:20:14.542Z,58.14
2024-01-20T17:25:17.614Z,58.45
2024-01-20T17:30:20.677Z,59.28
2024-01-20T17:35:25.334Z,60.17
2024-01-20T17:40:28.433Z,61.19
2024-01-20T17:45:31.473Z,62.69
2024-01-20T17:50:35.849Z,64.11
2024-01-20T17:55:38.926Z,65.06
2024-01-20T18:00:42.758Z,64.67
2024-01-20T18:05:47.239Z,64.68
2024-01-20T18:10:51.748Z,64.65
2024-01-20T18:15:54.899Z,64.11
2024-01-20T18:20:59.375Z,64.83
2024-01-20T18:26:02.320Z,65.29
2024-01-20T18:31:08.209Z,65.94
2024-01-20T18:36:13.151Z,65.97
2024-01-20T18:41:18.242Z,64.72
2024-01-20T18:46:22.058Z,63.21
2024-01-20T18:51:26.468Z,62.11
2024-01-20T18:56:29.559Z,62.28
2024-01-20T19:01:33.770Z,64.51
2024-01-20T19:06:38.326Z,65.12
2024-01-20T19:11:41.492Z,65.21
2024-01-20T19:16:44.502Z,64.84
2024-01-20T19:21:49.592Z,65.48
2024-01-20T19:26:52.609Z,66.02
2024-01-20T19:31:55.617Z,66.62
2024-01-20T19:36:59.919Z,65.99
2024-01-20T19:42:03.006Z,66.33
2024-01-20T19:47:07.527Z,66.17
2024-01-20T19:52:11.887Z,66.41
2024-01-20T19:57:16.294Z,66.44
2024-01-20T20:02:19.335Z,66.18
2024-01-20T20:07:23.734Z,65.68
2024-01-20T20:12:26.653Z,65.51
2024-01-20T20:17:29.636Z,66.55
2024-01-20T20:22:33.994Z,66.83
2024-01-20T20:27:36.971Z,67.00
2024-01-20T20:32:40.864Z,67.02
2024-01-20T20:37:45.496Z,67.22
2024-01-20T20:42:48.609Z,66.46
2024-01-20T20:47:51.682Z,66.16
2024-01-20T20:52:56.025Z,66.43
2024-01-20T20:57:58.995Z,65.68
2024-01-20T21:03:02.147Z,65.76
2024-01-20T21:08:07.057Z,65.04
2024-01-20T21:13:11.430Z,65.45
2024-01-20T21:18:15.285Z,64.91
2024-01-20T21:23:19.841Z,64.49
2024-01-20T21:28:23.476Z,64.78
2024-01-20T21:33:26.703Z,64.75
2024-01-20T21:38:31.073Z,64.20
2024-01-20T21:43:34.059Z,64.00
2024-01-20T21:48:37.778Z,64.15
2024-01-20T21:53:42.546Z,64.59
2024-01-20T21:58:45.554Z,65.60
2024-01-20T22:03:49.140Z,64.36
2024-01-20T22:08:53.532Z,63.95
2024-01-20T22:13:56.604Z,63.27
2024-01-20T22:18:59.724Z,63.83
2024-01-20T22:24:04.284Z,63.05
2024-01-20T22:29:18.775Z,62.92
2024-01-20T22:34:31.814Z,63.17
2024-01-20T22:39:38.151Z,63.24
2024-01-20T22:44:41.117Z,63.04
2024-01-20T22:49:44.507Z,63.68
2024-01-20T22:54:49.653Z,64.05
2024-01-20T22:59:52.797Z,64.28
2024-01-20T23:04:56.347Z,64.57
2024-01-20T23:10:00.815Z,64.48
2024-01-20T23:15:04.090Z,65.08
2024-01-20T23:20:09.140Z,65.04
2024-01-20T23:25:13.530Z,65.14
2024-01-20T23:30:17.163Z,65.55
2024-01-20T23:35:20.174Z,65.87
2024-01-20T23:40:24.512Z,65.18
2024-01-20T23:45:28.448Z,65.20
2024-01-20T23:50:31.581Z,64.85
2024-01-20T23:55:35.854Z,64.70
